Detall de PIREP

Printer-friendly versionPDF version

[2008/10/04 15:10:00]
Flight IATA:CT0001
Pilot Number:041
Company ICAO:CAT
Aircraft Type:F50/A
PAX:38
Departing Airport: LEVC
Destination Airport: LEMH
Alternate Airport:LEPA
Online: VATSIM
Route:RIKOS1B A33 TURIA A33 GATOS A33 MJV2B
Flight Level:FL070
No Slew and time accel
No pause
Crash detect
Detect pilot in Cockpit between each 30 and 45 minutes
15:10 Zero fuel Weight: 36710 Lbs, Fuel Weight: 4016 Lbs
15:10 VATSIM:LEVC 041430Z 14011KT CAVOK 20/02 Q1022 NOSIG
15:10 VATSIM:LEMH 041430Z 32007KT 270V350 9999 FEW025 SCT060 17/06 Q1023
15:15 VOICE CATALONIAN/VOL REGULAR
15:17 Parking Brakes off
15:27 Take-off
15:27 Take off Weight: 40599 Lbs
15:27 Wind: 150º @ 013 Knots Heading: 117º
15:27 POS N39º 29´ 23´´ W000º 28´ 59´´
15:27 Gear Up: 128 Knots
15:27 Flaps:2 at 129 Knots
15:27 Flaps:1 at 149 Knots
15:27 Flaps:0 at 162 Knots
15:35 TOC
15:35 Fuel Weight: 3647 L
b
15:42 Wind:150º@012 Knots Heading: 080º Ground Speed: 223 Knots Altitude 6998 ft
15:57 Wind:134º@003 Knots Heading: 091º Ground Speed: 226 Knots Altitude 6998 ft
16:03 TOD
16:03 Fuel Weight: 3006 Lb
16:12 Wind:233º@004 Knots Heading: 094º Ground Speed: 224 Knots Altitude 3999 ft
16:27 Wind:329º@003 Knots Heading: 080º Ground Speed: 215 Knots Altitude 3005 ft
16:32 Flaps:1 at 160 Knots
16:32 Gear Down: 147 Knots
16:32 Flaps:2 at 134 Knots
16:32 Flaps:3 at 120 Knots
16:33 Flaps:4 at 114 Knots
16:33 Flaps:5 at 111 Knots
16:33 Flaps:6 at 111 Knots
16:35 TouchDown:Rate -363 ft/min Speed: 82 Knots
16:35 VATSIM:LEMH 041630Z 34003KT 310V010 9999 SCT040 16/07 Q1023
16:35 Land
16:35 Wind:339º@003 Knots
16:35 Heading: 012º
16:35 Flight Duration: 01:08
16:35 Landing Weight: 39104 Lbs
16:35 POS N39º 51´ 38´´ E004º 13´ 05´´
16:39 Parking brakes on
16:39 Block to B
lock Duration: 01:22
16:39 Final Fuel: 2369 Lbls
16:39 Spent Fuel: 1646 Lbls
16:39 Flight Length: 241 NM
16:39 TOD Land Length: 109 NM

Exportar CSV

Powered by Drupal - Modified by Danger4k